Flight Track Log - Related Links

Times and Time Zones

All times are in EDT time to prevent confusion due to time zone crossing. See the AZU2488 flight status page for this flight to view local times or setup timezone preferences in your user account.

Time Position Orientation Groundspeed Altitude Reporting Facility
EDT Latitude Longitude Course Direction KTS MPH feet Rate Location/Type
Thu 05:37:31 PM -23.4257 -46.4524 72° East 122 140 3,200  Level FlightAware ADS-B
Thu 05:37:47 PM -23.4230 -46.4432 73° East 136 157 3,500 1,161 Climbing FlightAware ADS-B
Thu 05:38:02 PM -23.4201 -46.4326 74° East 148 170 3,800 1,227 Climbing FlightAware ADS-B
Thu 05:38:31 PM -23.4137 -46.4096 72° East 165 190 4,400 1,500 Climbing FlightAware ADS-B
Thu 05:38:46 PM -23.4099 -46.3971 71° East 164 189 4,900 1,800 Climbing FlightAware ADS-B
Thu 05:39:01 PM -23.4065 -46.3858 72° East 165 190 5,300 1,400 Climbing FlightAware ADS-B
Thu 05:39:16 PM -23.4029 -46.3739 72° East 165 190 5,600 1,400 Climbing FlightAware ADS-B
Thu 05:39:31 PM -23.3993 -46.3620 71° East 167 192 6,000 1,600 Climbing FlightAware ADS-B
Thu 05:39:46 PM -23.3955 -46.3493 71° East 167 192 6,400 1,400 Climbing FlightAware ADS-B
Thu 05:40:01 PM -23.3921 -46.3380 72° East 167 192 6,700 1,355 Climbing FlightAware ADS-B
Thu 05:40:17 PM -23.3887 -46.3263 72° East 169 194 7,100 1,333 Climbing FlightAware ADS-B
Thu 05:40:46 PM -23.3811 -46.3007 72° East 174 200 7,700 1,227 Climbing FlightAware ADS-B
Thu 05:41:01 PM -23.3775 -46.2883 72° East 177 204 8,000 1,200 Climbing FlightAware ADS-B
Thu 05:41:16 PM -23.3736 -46.2753 71° East 180 207 8,300 1,000 Climbing FlightAware ADS-B
Thu 05:41:31 PM -23.3696 -46.2622 71° East 185 213 8,500 774 Climbing FlightAware ADS-B
Thu 05:41:47 PM -23.3653 -46.2479 71° East 192 221 8,700 933 Climbing FlightAware ADS-B
Thu 05:42:16 PM -23.3569 -46.2206 71° East 197 227 9,200 933 Climbing FlightAware ADS-B
Thu 05:42:32 PM -23.3525 -46.2062 71° East 198 228 9,400 783 Climbing FlightAware ADS-B
Thu 05:43:02 PM -23.3435 -46.1763 71° East 206 237 9,800 844 Climbing FlightAware ADS-B
Thu 05:43:36 PM -23.3332 -46.1421 71° East 211 243 10,300 750 Climbing FlightAware ADS-B
Thu 05:44:06 PM -23.3239 -46.1115 72° East 218 251 10,600 689 Climbing FlightAware ADS-B
Thu 05:44:37 PM -23.3143 -46.0796 72° East 223 257 11,000 750 Climbing FlightAware ADS-B
Thu 05:44:54 PM -23.3066 -46.0606 52° Northeast 227 261 11,200 750 Climbing FlightAware ADS-B (SDAM)
Thu 05:45:17 PM -23.2866 -46.0483 15° North 228 262 11,500 808 Climbing FlightAware ADS-B
Thu 05:45:46 PM -23.2551 -46.0407 10° North 232 267 11,900 814 Climbing FlightAware ADS-B
Thu 05:46:16 PM -23.2238 -46.0341 11° North 233 268 12,300 800 Climbing FlightAware ADS-B
Thu 05:46:46 PM -23.1912 -46.0268 11° North 234 269 12,700 700 Climbing FlightAware ADS-B
Thu 05:47:16 PM -23.1593 -46.0195 11° North 238 274 13,000 689 Climbing FlightAware ADS-B
Thu 05:47:47 PM -23.1264 -46.0121 11° North 240 276 13,400 700 Climbing FlightAware ADS-B
Thu 05:48:16 PM -23.0937 -46.0046 11° North 242 278 13,700 712 Climbing FlightAware ADS-B
Thu 05:48:46 PM -23.0608 -45.9971 11° North 242 278 14,100 800 Climbing FlightAware ADS-B
Thu 05:49:16 PM -23.0276 -45.9895 11° North 243 280 14,500 689 Climbing FlightAware ADS-B
Thu 05:49:47 PM -22.9944 -45.9818 11° North 242 278 14,800 700 Climbing FlightAware ADS-B
Thu 05:50:16 PM -22.9608 -45.9742 11° North 244 281 15,200 712 Climbing FlightAware ADS-B
Thu 05:50:46 PM -22.9275 -45.9665 11° North 245 282 15,500 700 Climbing FlightAware ADS-B
Thu 05:51:16 PM -22.8936 -45.9588 11° North 244 281 15,900 700 Climbing FlightAware ADS-B
Thu 05:51:46 PM -22.8623 -45.9516 11° North 244 281 16,200 667 Climbing FlightAware ADS-B
Thu 05:52:01 PM -22.8447 -45.9472 18° North 245 282 16,400 600 Climbing FlightAware ADS-B (SDAM)
Thu 05:52:26 PM -22.8188 -45.9328 29° Northeast 247 284 16,600 554 Climbing FlightAware ADS-B
Thu 05:53:06 PM -22.7793 -45.9081 29° Northeast 249 287 17,000 343 Climbing FlightAware ADS-B
Thu 05:53:36 PM -22.7482 -45.8889 29° Northeast 262 302 17,000  Level FlightAware ADS-B
Thu 05:54:06 PM -22.7167 -45.8695 29° Northeast 272 313 17,000  Level FlightAware ADS-B
Thu 05:54:36 PM -22.6917 -45.8541 29° Northeast 277 319 17,000  Level FlightAware ADS-B
Thu 05:55:07 PM -22.6484 -45.8275 29° Northeast 283 326 17,000  Level FlightAware ADS-B
Thu 05:55:36 PM -22.6137 -45.8062 29° Northeast 285 328 17,000  Level FlightAware ADS-B
Thu 05:56:05 PM -22.5882 -45.7906 29° Northeast 287 330 17,000 300 Level FlightAware ADS-B
Thu 05:56:36 PM -22.5466 -45.7651 29° Northeast 273 314 17,300 857 Climbing FlightAware ADS-B
Thu 05:57:01 PM -22.5179 -45.7475 29° Northeast 264 304 17,800 1,000 Climbing FlightAware ADS-B
Thu 05:57:36 PM -22.4837 -45.7265 29° Northeast 252 290 18,300 646 Climbing FlightAware ADS-B
Thu 05:58:06 PM -22.4531 -45.7077 29° Northeast 250 288 18,500 393 Climbing FlightAware ADS-B
Thu 05:58:37 PM -22.4195 -45.6871 29° Northeast 253 291 18,700 414 Climbing FlightAware ADS-B
Thu 05:59:04 PM -22.3924 -45.6705 29° Northeast 253 291 18,900 286 Climbing FlightAware ADS-B
Thu 05:59:40 PM -22.3628 -45.6525 29° Northeast 262 302 19,000 82 Climbing FlightAware ADS-B
Thu 06:00:17 PM -22.3264 -45.6302 29° Northeast 271 312 19,000  Level FlightAware ADS-B
Thu 06:00:32 PM -22.3081 -45.6190 29° Northeast 271 312 19,000  Level FlightAware ADS-B
Thu 06:01:16 PM -22.2530 -45.5854 29° Northeast 282 325 19,000  Level FlightAware ADS-B
Thu 06:01:45 PM -22.2314 -45.5723 29° Northeast 286 329 19,000  Level FlightAware ADS-B
Thu 06:02:06 PM -22.1896 -45.5468 29° Northeast 287 330 19,000  Level FlightAware ADS-B
Thu 06:02:46 PM -22.1468 -45.5207 29° Northeast 288 331 19,000  Level FlightAware ADS-B (SDAM)
Thu 06:03:34 PM -22.0935 -45.4882 29° Northeast 289 333 19,000  Level FlightAware ADS-B (SDAM)
Thu 06:04:16 PM -22.0613 -45.4687 29° Northeast 288 331 19,000  Level FlightAware ADS-B
Thu 06:06:26 PM -21.8868 -45.3627 29° Northeast 287 330 19,000  Level FlightAware ADS-B (SDAM)
Thu 06:07:18 PM -21.8293 -45.3278 29° Northeast 286 329 19,000  Level FlightAware ADS-B (SDAM)
Thu 06:08:04 PM -21.7878 -45.3027 29° Northeast 286 329 19,000  Level FlightAware ADS-B (SDAM)
Thu 06:08:44 PM -21.7278 -45.2664 29° Northeast 285 328 19,000  Level FlightAware ADS-B (SDAM)
Thu 06:09:34 PM -21.6699 -45.2314 29° Northeast 284 327 19,000  Level FlightAware ADS-B (SDAM)
Thu 06:10:04 PM -21.6342 -45.2098 29° Northeast 283 326 19,000  Level FlightAware ADS-B (SDAM)
Thu 06:11:00 PM -21.5715 -45.1720 29° Northeast 283 326 19,000  Level FlightAware ADS-B (SDAM)
Thu 06:11:50 PM -21.5138 -45.1372 29° Northeast 286 329 19,000  Level FlightAware ADS-B (SDAM)
Thu 06:12:36 PM -21.4610 -45.1054 29° Northeast 291 335 19,000  Level FlightAware ADS-B (SDAM)
Thu 06:13:11 PM -21.4171 -45.0791 29° Northeast 291 335 19,000  Level FlightAware ADS-B (SDAM)
Thu 06:14:05 PM -21.3569 -45.0429 29° Northeast 290 334 19,000  Level FlightAware ADS-B (SDAM)
Thu 06:14:21 PM -21.3349 -45.0297 30° Northeast 289 333 19,000  Level FlightAware ADS-B
Thu 06:14:42 PM -21.3192 -45.0188 33° Northeast 286 329 19,000  Level FlightAware ADS-B (SDAM)
Thu 06:15:21 PM -21.2673 -44.9820 34° Northeast 286 329 19,000  Level FlightAware ADS-B
Thu 06:16:21 PM -21.2008 -44.9348 34° Northeast 287 330 19,000  Level FlightAware ADS-B
Thu 06:17:21 PM -21.1354 -44.8886 34° Northeast 288 331 19,000  Level FlightAware ADS-B
Thu 06:18:20 PM -21.0702 -44.8426 33° Northeast 289 333 19,000  Level FlightAware ADS-B
Thu 06:19:20 PM -21.0009 -44.7937 34° Northeast 290 334 19,000 -534 Level FlightAware ADS-B
Thu 06:31:49 PM -20.0897 -44.2603 37° Northeast 316 364 11,800 -634 Descending FlightAware ADS-B (SBBH / PLU)
Thu 06:32:25 PM -20.0480 -44.2268 37° Northeast 304 350 10,700 -2,000 Descending FlightAware ADS-B (SBBH / PLU)
Thu 06:32:55 PM -20.0143 -44.2000 36° Northeast 283 326 9,600 -1,890 Descending FlightAware ADS-B (SBBH / PLU)
Thu 06:33:38 PM -19.9710 -44.1658 36° Northeast 269 310 8,400 -1,579 Descending FlightAware ADS-B (SBBH / PLU)
Thu 06:34:11 PM -19.9380 -44.1397 37° Northeast 252 290 7,600 -1,524 Descending FlightAware ADS-B (SBBH / PLU)
Thu 06:34:41 PM -19.9112 -44.1183 36° Northeast 230 265 6,800 -1,448 Descending FlightAware ADS-B (SBBH / PLU)
Thu 06:35:09 PM -19.8883 -44.1003 36° Northeast 209 241 6,200 -1,220 Descending FlightAware ADS-B (SBBH / PLU)
Thu 06:35:40 PM -19.8650 -44.0821 36° Northeast 194 223 5,600 -1,082 Descending FlightAware ADS-B (SBBH / PLU)
Thu 06:36:10 PM -19.8442 -44.0658 36° Northeast 175 201 5,100 -1,082 Descending FlightAware ADS-B (SBBH / PLU)
Thu 06:36:41 PM -19.8253 -44.0507 40° Northeast 163 188 4,500 -1,082 Descending FlightAware ADS-B (SBBH / PLU)
Thu 06:37:11 PM -19.8212 -44.0322 108° East 119 137 4,000 -915 Descending FlightAware ADS-B (SBBH / PLU)
Thu 06:37:40 PM -19.8264 -44.0175 111° Southeast 97 112 3,600 -712 Descending FlightAware ADS-B (SBBH / PLU)
Thu 06:38:10 PM -19.8312 -44.0038 110° East 100 115 3,300 -590 Descending FlightAware ADS-B (SBBH / PLU)
Thu 06:38:41 PM -19.8366 -43.9894 110° East 102 117 3,000 -590 Descending FlightAware ADS-B (SBBH / PLU)
Thu 06:39:11 PM -19.8414 -43.9763 111° Southeast 102 117 2,700 -600 Descending FlightAware ADS-B (SBBH / PLU)
Thu 06:41:00 PM -19.8512 -43.9506 112° Southeast  Level Estimated
Thu 06:42:00 PM -19.8512 -43.9506 North  Level Estimated
Thu 06:43:00 PM -19.8512 -43.9506 North  Level Estimated

Login

Don't have an account? Register now (free) for customized features, flight alerts, and more!